• Join FlightAware (Why Join?)
  • Login
  • US Flag 
03:43PM EDT


 

Airport Tracker/Info


-or-


 

Live Flight TrackerFlight Track Log ✈ SKW5516 ✈ 01-Jun-2013 ✈ KASE - KDEN

Flight Track Log - Related Links

Times and Time Zones

All times are in EDT time to prevent confusion due to time zone crossing. See the SKW5516 flight status page for this flight to view local times or setup timezone preferences in your user account.

Time Position Orientation Groundspeed Altitude Reporting Facility
EDT Latitude Longitude Course Direction KTS MPH feet Rate Location/Type
09:02AM 39.2536 -106.8761 90° East 188 216 9,100  Level Denver Center
09:04AM 39.2797 -106.9394 298° West 216 249 11,700 2,580 Climbing Denver Center
09:05AM 39.4070 -106.7868 101° East  Level FlightAware Approximate
09:05AM 39.3206 -106.9900 316° Northwest 236 272 14,400  Level Denver Center
09:06AM 39.3876 -106.6609 101° East  Level FlightAware Approximate
09:06AM 39.3458 -106.9036 69° East 267 307 16,100  Level Denver Center
09:07AM 39.3639 -106.5363 104° East  Level FlightAware Approximate
09:07AM 39.3528 -106.7900 85° East 318 366 17,400  Level Denver Center
09:08AM 39.3333 -106.4166 90° East  Level FlightAware Approximate
09:08AM 39.3528 -106.6617 90° East 353 406 19,100  Level Denver Center
09:09AM 39.3528 -106.5153 90° East 374 430 20,700 900 Climbing Denver Center
09:10AM 39.3569 -106.3681 88° East 425 489 21,000 120 Climbing Denver Center
09:11AM 39.3644 -106.2114 86° East 453 521 21,000 -120 Level Denver Center
09:12AM 39.3731 -106.0378 86° East 456 525 20,800 -600 Descending Denver Center
09:13AM 39.3778 -105.8739 88° East 458 527 19,800 -900 Descending Denver Center
09:14AM 39.3861 -105.7183 86° East 441 507 19,000 -420 Descending Denver Center
09:15AM 39.3922 -105.5678 87° East 421 484 19,000 -180 Level Denver Center
09:16AM 39.3994 -105.4064 87° East 413 475 18,700 -1,200 Descending Denver Center
09:17AM 39.4072 -105.2519 86° East 427 491 16,700 -2,040 Descending Denver Center
09:18AM 39.4125 -105.1050 87° East 413 475 14,700 -1,800 Descending Denver Center
09:19AM 39.4172 -104.9783 87° East 351 404 13,100 -1,080 Descending Denver Center
09:20AM 39.4244 -104.8733 85° East 288 331 12,600 -1,020 Descending Denver Center
09:21AM 39.4522 -104.7942 66° East 246 283 11,100 -1,320 Descending Denver Center
09:22AM 39.4942 -104.7275 51° Northeast 239 275 10,000 -720 Descending Denver Center
09:23AM 39.5544 -104.6817 30° Northeast 231 266 9,700 -300 Descending Denver Center
09:24AM 39.6092 -104.6472 26° Northeast 222 255 9,400 -420 Descending Denver Center
09:25AM 39.6553 -104.6444 North 215 247 8,900 -540 Descending Denver Center